Time;durP1;ratioP1;P1;durP2;ratioP2;P2;SDS_P1;SDS_P2;PMS_P1;PMS_P2;Temp;Humidity;BMP_temperature;BMP_pressure;BME280_temperature;BME280_humidity;BME280_pressure;Samples;Min_cycle;Max_cycle;Signal;HPM_P1;HPM_P2
2021/10/10 00:09:44;;;;;;;27.52;15.85;;;;;;;6.43;73.03;102251.14;21262063;80;99257;-86
2021/10/10 00:39:45;;;;;;;28.90;15.50;;;;;;;6.16;73.74;102222.44;21254188;82;99545;-85
2021/10/10 01:09:46;;;;;;;29.20;15.70;;;;;;;5.98;74.08;102217.89;21144774;81;99185;-85
2021/10/10 01:39:47;;;;;;;34.07;18.43;;;;;;;5.78;74.41;102198.31;21114664;81;99283;-86
2021/10/10 02:09:47;;;;;;;35.08;18.85;;;;;;;5.51;75.63;102179.16;21121510;81;99625;-85
2021/10/10 02:39:48;;;;;;;40.07;20.23;;;;;;;5.40;75.75;102164.86;21113703;80;99607;-86
2021/10/10 03:09:49;;;;;;;37.90;19.43;;;;;;;5.22;76.66;102139.80;21120200;81;110123;-84
2021/10/10 03:39:50;;;;;;;39.60;20.20;;;;;;;5.08;77.30;102125.88;21121927;81;99746;-85
2021/10/10 04:09:52;;;;;;;33.83;19.03;;;;;;;4.97;77.75;102104.75;21389083;80;100454;-84
2021/10/10 04:39:53;;;;;;;35.30;17.23;;;;;;;4.82;77.82;102079.66;21369122;80;99577;-84
2021/10/10 05:09:54;;;;;;;31.90;17.75;;;;;;;4.74;78.35;102070.80;21116884;82;99253;-84
2021/10/10 05:39:54;;;;;;;36.95;19.00;;;;;;;4.60;78.58;102068.03;21128503;80;99603;-84
2021/10/10 06:09:55;;;;;;;36.57;18.90;;;;;;;4.41;79.17;102071.86;21126520;81;99200;-85
2021/10/10 06:39:56;;;;;;;36.42;20.23;;;;;;;4.39;80.01;102062.64;21128784;81;99217;-88
2021/10/10 07:09:56;;;;;;;36.70;19.70;;;;;;;4.59;80.21;102062.30;21093709;81;99435;-86
2021/10/10 07:39:57;;;;;;;38.60;20.40;;;;;;;5.19;80.29;102072.15;21245098;81;107340;-87
2021/10/10 08:09:58;;;;;;;31.20;18.12;;;;;;;6.06;79.09;102082.45;21334945;81;109709;-84
2021/10/10 08:39:59;;;;;;;27.10;15.23;;;;;;;7.27;77.79;102083.84;21228381;81;99847;-84
2021/10/10 09:10:24;;;;;;;23.07;14.63;;;;;;;9.99;74.41;102074.09;21409441;79;99482;-85
2021/10/10 09:40:33;;;;;;;16.93;9.27;;;;;;;14.87;66.56;102056.66;21407572;80;99789;-87
2021/10/10 10:10:34;;;;;;;12.28;7.78;;;;;;;18.66;55.11;102028.83;21304133;80;101083;-86
2021/10/10 10:40:38;;;;;;;11.80;7.20;;;;;;;19.57;48.32;102015.63;21276762;81;192457;-85
2021/10/10 11:10:39;;;;;;;10.93;5.97;;;;;;;20.03;43.53;101999.00;21148070;80;113218;-87
2021/10/10 11:41:00;;;;;;;12.77;6.60;;;;;;;18.87;41.20;101963.91;21127623;81;229427;-87
2021/10/10 12:11:06;;;;;;;12.33;5.58;;;;;;;18.03;42.48;101930.17;21382875;80;118391;-86
2021/10/10 12:41:25;;;;;;;13.18;5.62;;;;;;;16.92;41.72;101890.04;21357444;81;99849;-86
2021/10/10 13:11:28;;;;;;;12.27;6.57;;;;;;;16.65;43.39;101842.73;20727955;83;99802;-86
2021/10/10 13:41:29;;;;;;;12.30;6.33;;;;;;;15.78;43.88;101816.19;20747719;82;99747;-83
2021/10/10 14:11:30;;;;;;;;;;;;;;;15.45;43.45;101799.52;21118355;81;102249;-86
2021/10/10 14:41:42;;;;;;;14.03;7.70;;;;;;;14.87;44.11;101769.74;20925427;80;131047;-86
2021/10/10 15:11:37;;;;;;;11.27;6.47;;;;;;;14.93;42.72;101728.83;21354762;80;99615;-84
2021/10/10 15:41:38;;;;;;;14.37;8.60;;;;;;;13.60;46.06;101718.83;21345416;80;99397;-85
2021/10/10 16:11:40;;;;;;;34.30;19.70;;;;;;;12.66;49.67;101699.62;21194771;80;99827;-85
2021/10/10 16:41:56;;;;;;;24.63;12.58;;;;;;;11.36;54.79;101692.15;21129932;81;100097;-84
2021/10/10 17:11:47;;;;;;;22.73;12.43;;;;;;;10.23;58.85;101685.75;20913257;82;99771;-85
2021/10/10 17:41:47;;;;;;;39.07;21.07;;;;;;;9.24;62.02;101678.53;20943513;80;99399;-85
2021/10/10 18:11:55;;;;;;;35.17;17.73;;;;;;;8.42;64.39;101673.86;21403367;80;99235;-84
2021/10/10 18:41:54;;;;;;;45.67;20.53;;;;;;;7.70;66.59;101670.45;21406018;80;143930;-84
2021/10/10 19:11:56;;;;;;;57.10;25.60;;;;;;;7.10;68.28;101659.41;21361523;80;108991;-83
2021/10/10 19:41:56;;;;;;;60.55;23.73;;;;;;;6.55;69.85;101648.28;21437006;80;99488;-83
2021/10/10 20:11:57;;;;;;;58.63;24.00;;;;;;;6.30;70.73;101623.10;21147012;81;99503;-81
2021/10/10 20:41:58;;;;;;;55.37;26.00;;;;;;;5.96;71.74;101603.91;21109991;81;181739;-82
2021/10/10 21:11:59;;;;;;;57.20;24.00;;;;;;;5.61;72.71;101586.30;21108519;82;100061;-83
2021/10/10 21:42:00;;;;;;;48.50;23.73;;;;;;;5.27;73.46;101541.94;21106940;81;99597;-83
2021/10/10 22:12:03;;;;;;;45.30;24.52;;;;;;;4.79;75.33;101491.94;21198555;82;99408;-83
2021/10/10 22:42:04;;;;;;;36.67;20.30;;;;;;;4.79;75.33;101491.94;21262748;80;99629;-83
2021/10/10 23:12:05;;;;;;;36.63;19.67;;;;;;;4.54;75.84;101464.52;20662153;81;105088;-83
2021/10/10 23:42:06;;;;;;;29.92;16.15;;;;;;;4.38;76.30;101445.03;20623717;82;115334;-84
